sensor_id;sensor_type;location;lat;lon;timestamp;pressure;altitude;pressure_sealevel;temperature;humidity
77017;BME280;65949;53.132;17.930;2023-06-04T00:00:52;101766.61;;;9.51;56.61
77017;BME280;65949;53.132;17.930;2023-06-04T00:03:38;101766.92;;;9.48;56.56
77017;BME280;65949;53.132;17.930;2023-06-04T00:06:05;101765.85;;;9.43;56.75
77017;BME280;65949;53.132;17.930;2023-06-04T00:08:31;101763.25;;;9.39;56.63
77017;BME280;65949;53.132;17.930;2023-06-04T00:10:58;101762.05;;;9.36;56.78
77017;BME280;65949;53.132;17.930;2023-06-04T00:13:24;101761.33;;;9.32;56.65
77017;BME280;65949;53.132;17.930;2023-06-04T00:15:51;101756.09;;;9.29;56.89
77017;BME280;65949;53.132;17.930;2023-06-04T00:18:18;101752.96;;;9.26;56.77
77017;BME280;65949;53.132;17.930;2023-06-04T00:20:44;101751.43;;;9.22;56.97
77017;BME280;65949;53.132;17.930;2023-06-04T00:23:11;101752.19;;;9.19;57.28
77017;BME280;65949;53.132;17.930;2023-06-04T00:25:37;101749.97;;;9.16;57.18
77017;BME280;65949;53.132;17.930;2023-06-04T00:28:04;101747.71;;;9.14;57.32
77017;BME280;65949;53.132;17.930;2023-06-04T00:30:31;101747.08;;;9.11;57.43
77017;BME280;65949;53.132;17.930;2023-06-04T00:32:58;101748.83;;;9.07;57.68
77017;BME280;65949;53.132;17.930;2023-06-04T00:35:25;101749.18;;;9.03;57.66
77017;BME280;65949;53.132;17.930;2023-06-04T00:37:52;101742.46;;;9.00;57.67
77017;BME280;65949;53.132;17.930;2023-06-04T00:40:18;101742.41;;;8.96;57.95
77017;BME280;65949;53.132;17.930;2023-06-04T00:42:45;101740.15;;;8.94;57.82
77017;BME280;65949;53.132;17.930;2023-06-04T00:45:12;101739.30;;;8.91;58.01
77017;BME280;65949;53.132;17.930;2023-06-04T00:47:40;101740.52;;;8.89;58.10
77017;BME280;65949;53.132;17.930;2023-06-04T00:50:07;101737.83;;;8.86;58.33
77017;BME280;65949;53.132;17.930;2023-06-04T00:52:34;101734.21;;;8.83;58.26
77017;BME280;65949;53.132;17.930;2023-06-04T00:55:02;101739.16;;;8.80;58.52
77017;BME280;65949;53.132;17.930;2023-06-04T00:57:28;101736.52;;;8.77;58.67
77017;BME280;65949;53.132;17.930;2023-06-04T00:59:55;101740.90;;;8.74;58.94
77017;BME280;65949;53.132;17.930;2023-06-04T01:02:23;101738.84;;;8.71;58.61
77017;BME280;65949;53.132;17.930;2023-06-04T01:07:44;101735.05;;;8.66;59.00
77017;BME280;65949;53.132;17.930;2023-06-04T01:10:15;101731.21;;;8.64;59.46
77017;BME280;65949;53.132;17.930;2023-06-04T01:12:42;101734.15;;;8.63;59.33
77017;BME280;65949;53.132;17.930;2023-06-04T01:15:10;101733.25;;;8.61;59.22
77017;BME280;65949;53.132;17.930;2023-06-04T01:17:43;101730.79;;;8.58;59.15
77017;BME280;65949;53.132;17.930;2023-06-04T01:20:18;101735.41;;;8.57;59.29
77017;BME280;65949;53.132;17.930;2023-06-04T01:25:24;101737.55;;;8.49;59.17
77017;BME280;65949;53.132;17.930;2023-06-04T01:27:55;101739.47;;;8.44;59.62
77017;BME280;65949;53.132;17.930;2023-06-04T01:30:26;101738.61;;;8.40;59.86
77017;BME280;65949;53.132;17.930;2023-06-04T01:32:54;101736.41;;;8.35;59.92
77017;BME280;65949;53.132;17.930;2023-06-04T01:35:22;101737.96;;;8.31;59.71
77017;BME280;65949;53.132;17.930;2023-06-04T01:37:49;101739.78;;;8.27;60.12
77017;BME280;65949;53.132;17.930;2023-06-04T01:40:16;101740.84;;;8.24;59.90
77017;BME280;65949;53.132;17.930;2023-06-04T01:42:43;101744.37;;;8.21;59.94
77017;BME280;65949;53.132;17.930;2023-06-04T01:45:10;101739.86;;;8.17;60.29
77017;BME280;65949;53.132;17.930;2023-06-04T01:47:37;101743.35;;;8.13;60.61
77017;BME280;65949;53.132;17.930;2023-06-04T01:50:05;101742.73;;;8.10;60.48
77017;BME280;65949;53.132;17.930;2023-06-04T01:52:39;101742.27;;;8.09;60.76
77017;BME280;65949;53.132;17.930;2023-06-04T01:55:08;101741.05;;;8.05;60.79
77017;BME280;65949;53.132;17.930;2023-06-04T01:57:35;101737.92;;;8.01;60.80
77017;BME280;65949;53.132;17.930;2023-06-04T02:00:03;101739.21;;;7.98;61.19
77017;BME280;65949;53.132;17.930;2023-06-04T02:02:45;101737.08;;;7.95;61.12
77017;BME280;65949;53.132;17.930;2023-06-04T02:05:12;101742.89;;;7.92;61.37
77017;BME280;65949;53.132;17.930;2023-06-04T02:07:43;101743.18;;;7.90;61.45
77017;BME280;65949;53.132;17.930;2023-06-04T02:10:13;101737.67;;;7.87;61.28
77017;BME280;65949;53.132;17.930;2023-06-04T02:12:53;101739.41;;;7.84;61.39
77017;BME280;65949;53.132;17.930;2023-06-04T02:15:20;101744.57;;;7.82;61.26
77017;BME280;65949;53.132;17.930;2023-06-04T02:17:46;101745.42;;;7.78;61.40
77017;BME280;65949;53.132;17.930;2023-06-04T02:20:14;101741.66;;;7.74;61.38
77017;BME280;65949;53.132;17.930;2023-06-04T02:22:40;101741.81;;;7.73;61.44
77017;BME280;65949;53.132;17.930;2023-06-04T02:25:07;101742.16;;;7.69;61.34
77017;BME280;65949;53.132;17.930;2023-06-04T02:27:35;101740.70;;;7.67;61.41
77017;BME280;65949;53.132;17.930;2023-06-04T02:30:03;101738.66;;;7.66;61.41
77017;BME280;65949;53.132;17.930;2023-06-04T02:32:30;101738.86;;;7.66;61.47
77017;BME280;65949;53.132;17.930;2023-06-04T02:34:57;101742.13;;;7.65;61.56
77017;BME280;65949;53.132;17.930;2023-06-04T02:37:23;101742.53;;;7.65;61.78
77017;BME280;65949;53.132;17.930;2023-06-04T02:39:50;101745.05;;;7.65;61.67
77017;BME280;65949;53.132;17.930;2023-06-04T02:42:17;101745.86;;;7.63;62.15
77017;BME280;65949;53.132;17.930;2023-06-04T02:44:43;101744.03;;;7.60;62.13
77017;BME280;65949;53.132;17.930;2023-06-04T02:47:10;101751.42;;;7.59;61.70
77017;BME280;65949;53.132;17.930;2023-06-04T02:49:36;101750.11;;;7.57;61.79
77017;BME280;65949;53.132;17.930;2023-06-04T02:52:03;101748.79;;;7.58;61.71
77017;BME280;65949;53.132;17.930;2023-06-04T02:54:30;101743.96;;;7.58;61.44
77017;BME280;65949;53.132;17.930;2023-06-04T02:56:57;101738.81;;;7.59;61.75
77017;BME280;65949;53.132;17.930;2023-06-04T02:59:23;101734.06;;;7.59;61.42
77017;BME280;65949;53.132;17.930;2023-06-04T03:01:51;101734.17;;;7.59;61.82
77017;BME280;65949;53.132;17.930;2023-06-04T03:04:18;101736.98;;;7.58;61.59
77017;BME280;65949;53.132;17.930;2023-06-04T03:06:44;101733.38;;;7.55;61.67
77017;BME280;65949;53.132;17.930;2023-06-04T03:09:13;101733.31;;;7.56;61.65
77017;BME280;65949;53.132;17.930;2023-06-04T03:11:40;101730.66;;;7.59;61.87
77017;BME280;65949;53.132;17.930;2023-06-04T03:14:08;101733.31;;;7.65;62.27
77017;BME280;65949;53.132;17.930;2023-06-04T03:16:35;101733.23;;;7.68;61.61
77017;BME280;65949;53.132;17.930;2023-06-04T03:19:06;101734.39;;;7.73;62.26
77017;BME280;65949;53.132;17.930;2023-06-04T03:21:32;101739.46;;;7.80;61.67
77017;BME280;65949;53.132;17.930;2023-06-04T03:23:59;101736.36;;;7.88;61.70
77017;BME280;65949;53.132;17.930;2023-06-04T03:26:27;101745.24;;;7.99;61.68
77017;BME280;65949;53.132;17.930;2023-06-04T03:28:54;101744.81;;;8.38;61.29
77017;BME280;65949;53.132;17.930;2023-06-04T03:31:21;101743.16;;;9.04;60.60
77017;BME280;65949;53.132;17.930;2023-06-04T03:33:48;101742.46;;;9.59;59.61
77017;BME280;65949;53.132;17.930;2023-06-04T03:36:15;101746.20;;;10.12;58.70
77017;BME280;65949;53.132;17.930;2023-06-04T03:38:45;101739.13;;;10.36;58.28
77017;BME280;65949;53.132;17.930;2023-06-04T03:41:12;101738.59;;;10.56;57.84
77017;BME280;65949;53.132;17.930;2023-06-04T03:43:39;101737.31;;;10.92;57.15
77017;BME280;65949;53.132;17.930;2023-06-04T03:46:07;101738.66;;;11.43;56.31
77017;BME280;65949;53.132;17.930;2023-06-04T03:48:34;101738.83;;;12.03;55.17
77017;BME280;65949;53.132;17.930;2023-06-04T03:51:01;101737.09;;;12.48;54.21
77017;BME280;65949;53.132;17.930;2023-06-04T03:53:28;101737.64;;;13.00;53.32
77017;BME280;65949;53.132;17.930;2023-06-04T03:55:56;101736.86;;;13.53;52.32
77017;BME280;65949;53.132;17.930;2023-06-04T03:58:23;101732.86;;;13.96;51.45
77017;BME280;65949;53.132;17.930;2023-06-04T04:00:51;101737.40;;;14.46;50.42
77017;BME280;65949;53.132;17.930;2023-06-04T04:03:18;101734.05;;;15.09;49.27
77017;BME280;65949;53.132;17.930;2023-06-04T04:05:46;101733.87;;;15.93;47.68
77017;BME280;65949;53.132;17.930;2023-06-04T04:08:12;101730.20;;;16.63;46.48
77017;BME280;65949;53.132;17.930;2023-06-04T04:10:43;101733.35;;;17.30;45.23
77017;BME280;65949;53.132;17.930;2023-06-04T04:13:10;101730.08;;;17.83;44.17
77017;BME280;65949;53.132;17.930;2023-06-04T04:15:38;101727.17;;;18.22;43.15
77017;BME280;65949;53.132;17.930;2023-06-04T04:18:05;101730.39;;;18.59;41.90
77017;BME280;65949;53.132;17.930;2023-06-04T04:20:34;101722.94;;;18.91;41.42
77017;BME280;65949;53.132;17.930;2023-06-04T04:23:04;101723.37;;;19.23;40.49
77017;BME280;65949;53.132;17.930;2023-06-04T04:25:35;101719.83;;;19.51;40.13
77017;BME280;65949;53.132;17.930;2023-06-04T04:28:04;101722.30;;;19.79;39.70
77017;BME280;65949;53.132;17.930;2023-06-04T04:30:34;101720.99;;;19.82;39.01
77017;BME280;65949;53.132;17.930;2023-06-04T04:33:02;101721.94;;;19.85;38.93
77017;BME280;65949;53.132;17.930;2023-06-04T04:35:36;101724.45;;;20.13;38.71
77017;BME280;65949;53.132;17.930;2023-06-04T04:38:04;101722.52;;;20.40;38.32
77017;BME280;65949;53.132;17.930;2023-06-04T04:40:31;101724.07;;;20.63;37.66
77017;BME280;65949;53.132;17.930;2023-06-04T04:42:59;101723.50;;;20.90;37.49
77017;BME280;65949;53.132;17.930;2023-06-04T04:45:25;101721.42;;;21.26;36.88
77017;BME280;65949;53.132;17.930;2023-06-04T04:47:53;101718.98;;;21.56;36.53
77017;BME280;65949;53.132;17.930;2023-06-04T04:50:20;101715.20;;;21.75;36.12
77017;BME280;65949;53.132;17.930;2023-06-04T04:52:47;101720.10;;;22.02;35.41
77017;BME280;65949;53.132;17.930;2023-06-04T04:55:14;101716.31;;;22.11;34.76
77017;BME280;65949;53.132;17.930;2023-06-04T04:57:41;101715.61;;;22.20;34.69
77017;BME280;65949;53.132;17.930;2023-06-04T05:00:09;101721.79;;;22.31;34.52
77017;BME280;65949;53.132;17.930;2023-06-04T05:02:37;101721.13;;;22.43;33.91
77017;BME280;65949;53.132;17.930;2023-06-04T05:05:05;101721.38;;;22.55;33.92
77017;BME280;65949;53.132;17.930;2023-06-04T05:07:32;101724.36;;;22.69;33.50
77017;BME280;65949;53.132;17.930;2023-06-04T05:09:59;101720.34;;;22.68;33.78
77017;BME280;65949;53.132;17.930;2023-06-04T05:12:30;101726.66;;;22.72;33.41
77017;BME280;65949;53.132;17.930;2023-06-04T05:14:57;101725.02;;;22.93;33.05
77017;BME280;65949;53.132;17.930;2023-06-04T05:17:24;101724.80;;;23.14;32.94
77017;BME280;65949;53.132;17.930;2023-06-04T05:19:56;101724.84;;;23.26;32.72
77017;BME280;65949;53.132;17.930;2023-06-04T05:22:39;101726.70;;;22.81;32.54
77017;BME280;65949;53.132;17.930;2023-06-04T05:25:06;101729.23;;;22.45;33.20
77017;BME280;65949;53.132;17.930;2023-06-04T05:27:35;101726.27;;;22.47;32.93
77017;BME280;65949;53.132;17.930;2023-06-04T05:30:03;101727.99;;;22.52;32.72
77017;BME280;65949;53.132;17.930;2023-06-04T05:32:30;101726.83;;;22.82;32.52
77017;BME280;65949;53.132;17.930;2023-06-04T05:34:59;101725.93;;;23.06;32.51
77017;BME280;65949;53.132;17.930;2023-06-04T05:37:27;101728.81;;;23.36;32.16
77017;BME280;65949;53.132;17.930;2023-06-04T05:39:56;101731.67;;;23.55;31.06
77017;BME280;65949;53.132;17.930;2023-06-04T05:42:23;101731.59;;;23.65;31.34
77017;BME280;65949;53.132;17.930;2023-06-04T05:44:50;101734.41;;;23.86;30.88
77017;BME280;65949;53.132;17.930;2023-06-04T05:47:17;101738.73;;;24.08;30.56
77017;BME280;65949;53.132;17.930;2023-06-04T05:49:45;101737.10;;;24.28;29.77
77017;BME280;65949;53.132;17.930;2023-06-04T05:52:12;101738.13;;;24.36;29.34
77017;BME280;65949;53.132;17.930;2023-06-04T05:54:39;101742.20;;;24.41;29.42
77017;BME280;65949;53.132;17.930;2023-06-04T05:57:07;101746.82;;;24.49;28.37
77017;BME280;65949;53.132;17.930;2023-06-04T05:59:34;101743.15;;;24.43;27.71
77017;BME280;65949;53.132;17.930;2023-06-04T06:02:03;101742.81;;;24.25;27.78
77017;BME280;65949;53.132;17.930;2023-06-04T06:04:30;101738.57;;;24.13;28.48
77017;BME280;65949;53.132;17.930;2023-06-04T06:06:57;101741.58;;;24.16;28.14
77017;BME280;65949;53.132;17.930;2023-06-04T06:09:24;101739.81;;;24.19;28.29
77017;BME280;65949;53.132;17.930;2023-06-04T06:11:50;101743.73;;;24.16;28.55
77017;BME280;65949;53.132;17.930;2023-06-04T06:14:17;101744.15;;;24.17;28.04
77017;BME280;65949;53.132;17.930;2023-06-04T06:16:44;101745.63;;;24.07;27.53
77017;BME280;65949;53.132;17.930;2023-06-04T06:19:11;101744.47;;;23.83;27.01
77017;BME280;65949;53.132;17.930;2023-06-04T06:21:38;101745.83;;;23.39;27.70
77017;BME280;65949;53.132;17.930;2023-06-04T06:24:05;101753.04;;;22.82;28.07
77017;BME280;65949;53.132;17.930;2023-06-04T06:26:32;101753.09;;;22.45;28.82
77017;BME280;65949;53.132;17.930;2023-06-04T06:29:00;101752.17;;;22.11;29.11
77017;BME280;65949;53.132;17.930;2023-06-04T06:31:27;101752.32;;;21.78;29.60
77017;BME280;65949;53.132;17.930;2023-06-04T06:33:54;101749.27;;;21.41;30.09
77017;BME280;65949;53.132;17.930;2023-06-04T06:36:20;101753.15;;;21.23;30.35
77017;BME280;65949;53.132;17.930;2023-06-04T06:38:47;101753.85;;;21.03;30.01
77017;BME280;65949;53.132;17.930;2023-06-04T06:41:14;101752.61;;;20.66;30.21
77017;BME280;65949;53.132;17.930;2023-06-04T06:43:40;101753.57;;;20.35;30.88
77017;BME280;65949;53.132;17.930;2023-06-04T06:46:07;101757.90;;;20.20;31.15
77017;BME280;65949;53.132;17.930;2023-06-04T06:48:34;101753.61;;;19.95;31.19
77017;BME280;65949;53.132;17.930;2023-06-04T06:51:01;101753.63;;;19.75;31.17
77017;BME280;65949;53.132;17.930;2023-06-04T06:53:27;101747.63;;;19.54;31.48
77017;BME280;65949;53.132;17.930;2023-06-04T06:55:54;101751.09;;;19.48;31.62
77017;BME280;65949;53.132;17.930;2023-06-04T06:58:21;101749.61;;;19.52;31.64
77017;BME280;65949;53.132;17.930;2023-06-04T07:00:49;101750.37;;;19.55;31.61
77017;BME280;65949;53.132;17.930;2023-06-04T07:03:16;101748.38;;;19.49;31.64
77017;BME280;65949;53.132;17.930;2023-06-04T07:05:43;101749.65;;;19.49;31.20
77017;BME280;65949;53.132;17.930;2023-06-04T07:08:09;101744.90;;;19.40;30.36
77017;BME280;65949;53.132;17.930;2023-06-04T07:10:36;101741.27;;;19.20;30.63
77017;BME280;65949;53.132;17.930;2023-06-04T07:13:03;101746.18;;;19.11;30.76
77017;BME280;65949;53.132;17.930;2023-06-04T07:15:30;101746.35;;;19.15;31.01
77017;BME280;65949;53.132;17.930;2023-06-04T07:17:56;101745.06;;;19.25;31.20
77017;BME280;65949;53.132;17.930;2023-06-04T07:20:23;101744.74;;;19.39;30.59
77017;BME280;65949;53.132;17.930;2023-06-04T07:22:50;101744.50;;;19.46;30.53
77017;BME280;65949;53.132;17.930;2023-06-04T07:25:17;101744.09;;;19.53;30.58
77017;BME280;65949;53.132;17.930;2023-06-04T07:27:43;101742.96;;;19.58;30.04
77017;BME280;65949;53.132;17.930;2023-06-04T07:30:10;101741.36;;;19.59;30.40
77017;BME280;65949;53.132;17.930;2023-06-04T07:32:37;101737.80;;;19.57;30.36
77017;BME280;65949;53.132;17.930;2023-06-04T07:35:04;101737.61;;;19.63;30.25
77017;BME280;65949;53.132;17.930;2023-06-04T07:37:30;101737.02;;;19.57;30.24
77017;BME280;65949;53.132;17.930;2023-06-04T07:39:57;101749.52;;;19.55;30.06
77017;BME280;65949;53.132;17.930;2023-06-04T07:42:23;101747.95;;;19.49;29.75
77017;BME280;65949;53.132;17.930;2023-06-04T07:44:50;101744.29;;;19.46;29.96
77017;BME280;65949;53.132;17.930;2023-06-04T07:47:17;101742.11;;;19.46;30.24
77017;BME280;65949;53.132;17.930;2023-06-04T07:49:43;101742.13;;;19.42;30.21
77017;BME280;65949;53.132;17.930;2023-06-04T07:52:10;101737.25;;;19.30;30.23
77017;BME280;65949;53.132;17.930;2023-06-04T07:54:37;101735.34;;;19.24;30.55
77017;BME280;65949;53.132;17.930;2023-06-04T07:57:03;101737.48;;;19.22;29.93
77017;BME280;65949;53.132;17.930;2023-06-04T07:59:30;101734.50;;;19.19;30.36
77017;BME280;65949;53.132;17.930;2023-06-04T08:01:56;101731.96;;;19.26;30.23
77017;BME280;65949;53.132;17.930;2023-06-04T08:04:23;101734.80;;;19.39;30.23
77017;BME280;65949;53.132;17.930;2023-06-04T08:06:51;101727.77;;;19.55;30.15
77017;BME280;65949;53.132;17.930;2023-06-04T08:09:18;101728.92;;;19.68;29.95
77017;BME280;65949;53.132;17.930;2023-06-04T08:11:45;101731.96;;;19.84;29.85
77017;BME280;65949;53.132;17.930;2023-06-04T08:14:12;101728.23;;;19.92;29.55
77017;BME280;65949;53.132;17.930;2023-06-04T08:16:39;101731.06;;;19.94;29.49
77017;BME280;65949;53.132;17.930;2023-06-04T08:19:09;101732.84;;;19.96;29.30
77017;BME280;65949;53.132;17.930;2023-06-04T08:21:36;101729.86;;;19.87;29.19
77017;BME280;65949;53.132;17.930;2023-06-04T08:24:03;101732.46;;;19.68;29.14
77017;BME280;65949;53.132;17.930;2023-06-04T08:26:30;101733.38;;;19.51;29.43
77017;BME280;65949;53.132;17.930;2023-06-04T08:28:57;101723.99;;;19.45;29.63
77017;BME280;65949;53.132;17.930;2023-06-04T08:31:23;101723.78;;;19.53;29.91
77017;BME280;65949;53.132;17.930;2023-06-04T08:33:50;101725.42;;;19.64;30.09
77017;BME280;65949;53.132;17.930;2023-06-04T08:36:17;101721.64;;;19.77;29.77
77017;BME280;65949;53.132;17.930;2023-06-04T08:38:43;101724.61;;;19.73;29.15
77017;BME280;65949;53.132;17.930;2023-06-04T08:41:15;101721.05;;;19.63;29.53
77017;BME280;65949;53.132;17.930;2023-06-04T08:43:44;101721.45;;;19.68;29.05
77017;BME280;65949;53.132;17.930;2023-06-04T08:46:11;101716.46;;;19.65;29.55
77017;BME280;65949;53.132;17.930;2023-06-04T08:48:38;101714.21;;;19.72;29.33
77017;BME280;65949;53.132;17.930;2023-06-04T08:51:06;101714.05;;;19.79;29.72
77017;BME280;65949;53.132;17.930;2023-06-04T08:53:37;101717.07;;;19.99;29.72
77017;BME280;65949;53.132;17.930;2023-06-04T08:56:04;101724.15;;;20.12;29.06
77017;BME280;65949;53.132;17.930;2023-06-04T08:58:31;101721.33;;;20.13;29.34
77017;BME280;65949;53.132;17.930;2023-06-04T09:01:00;101728.38;;;20.22;28.84
77017;BME280;65949;53.132;17.930;2023-06-04T09:03:28;101726.17;;;20.27;28.85
77017;BME280;65949;53.132;17.930;2023-06-04T09:05:58;101722.09;;;20.36;28.94
77017;BME280;65949;53.132;17.930;2023-06-04T09:08:27;101724.76;;;20.39;28.28
77017;BME280;65949;53.132;17.930;2023-06-04T09:10:58;101723.16;;;20.34;28.60
77017;BME280;65949;53.132;17.930;2023-06-04T09:13:28;101717.17;;;20.39;28.70
77017;BME280;65949;53.132;17.930;2023-06-04T09:16:04;101717.77;;;20.48;28.78
77017;BME280;65949;53.132;17.930;2023-06-04T09:18:32;101713.95;;;20.60;28.48
77017;BME280;65949;53.132;17.930;2023-06-04T09:21:06;101716.44;;;20.71;29.08
77017;BME280;65949;53.132;17.930;2023-06-04T09:23:51;101709.62;;;20.85;28.95
77017;BME280;65949;53.132;17.930;2023-06-04T09:26:17;101714.40;;;20.78;27.97
77017;BME280;65949;53.132;17.930;2023-06-04T09:28:45;101710.81;;;20.78;28.25
77017;BME280;65949;53.132;17.930;2023-06-04T09:31:16;101709.54;;;20.86;27.98
77017;BME280;65949;53.132;17.930;2023-06-04T09:33:49;101708.02;;;20.79;28.01
77017;BME280;65949;53.132;17.930;2023-06-04T09:36:16;101705.20;;;20.78;28.44
77017;BME280;65949;53.132;17.930;2023-06-04T09:38:43;101705.27;;;20.84;28.46
77017;BME280;65949;53.132;17.930;2023-06-04T09:41:14;101709.24;;;20.99;28.53
77017;BME280;65949;53.132;17.930;2023-06-04T09:43:42;101706.58;;;21.16;28.33
77017;BME280;65949;53.132;17.930;2023-06-04T09:46:15;101701.27;;;21.24;27.78
77017;BME280;65949;53.132;17.930;2023-06-04T09:48:42;101700.92;;;21.27;27.78
77017;BME280;65949;53.132;17.930;2023-06-04T09:53:38;101696.89;;;21.17;27.29
77017;BME280;65949;53.132;17.930;2023-06-04T09:56:06;101692.91;;;21.05;27.58
77017;BME280;65949;53.132;17.930;2023-06-04T09:58:35;101697.29;;;20.93;27.59
77017;BME280;65949;53.132;17.930;2023-06-04T10:01:04;101701.33;;;20.88;28.03
77017;BME280;65949;53.132;17.930;2023-06-04T10:03:33;101700.80;;;20.88;28.04
77017;BME280;65949;53.132;17.930;2023-06-04T10:06:03;101698.75;;;20.94;28.10
77017;BME280;65949;53.132;17.930;2023-06-04T10:08:31;101696.39;;;20.90;27.85
77017;BME280;65949;53.132;17.930;2023-06-04T10:11:02;101695.42;;;20.90;28.10
77017;BME280;65949;53.132;17.930;2023-06-04T10:13:31;101695.33;;;20.95;27.79
77017;BME280;65949;53.132;17.930;2023-06-04T10:16:02;101690.33;;;20.86;27.60
77017;BME280;65949;53.132;17.930;2023-06-04T10:18:33;101687.50;;;20.86;27.61
77017;BME280;65949;53.132;17.930;2023-06-04T10:21:06;101692.62;;;20.95;28.42
77017;BME280;65949;53.132;17.930;2023-06-04T10:23:37;101693.00;;;21.14;28.17
77017;BME280;65949;53.132;17.930;2023-06-04T10:26:04;101692.61;;;21.22;27.62
77017;BME280;65949;53.132;17.930;2023-06-04T10:28:32;101695.41;;;21.12;27.63
77017;BME280;65949;53.132;17.930;2023-06-04T10:31:00;101695.48;;;20.93;27.81
77017;BME280;65949;53.132;17.930;2023-06-04T10:33:27;101694.33;;;20.78;27.73
77017;BME280;65949;53.132;17.930;2023-06-04T10:35:55;101691.28;;;20.79;27.92
77017;BME280;65949;53.132;17.930;2023-06-04T10:38:25;101686.48;;;20.97;27.94
77017;BME280;65949;53.132;17.930;2023-06-04T10:40:52;101690.65;;;21.12;27.50
77017;BME280;65949;53.132;17.930;2023-06-04T10:43:19;101686.64;;;21.08;27.43
77017;BME280;65949;53.132;17.930;2023-06-04T10:45:46;101684.54;;;21.05;27.59
77017;BME280;65949;53.132;17.930;2023-06-04T10:48:13;101684.75;;;21.10;27.33
77017;BME280;65949;53.132;17.930;2023-06-04T10:50:49;101690.41;;;21.18;27.33
77017;BME280;65949;53.132;17.930;2023-06-04T10:53:17;101688.90;;;21.29;27.30
77017;BME280;65949;53.132;17.930;2023-06-04T10:55:48;101690.14;;;21.45;27.20
77017;BME280;65949;53.132;17.930;2023-06-04T10:58:16;101687.70;;;21.59;27.25
77017;BME280;65949;53.132;17.930;2023-06-04T11:00:45;101684.20;;;21.67;26.81
77017;BME280;65949;53.132;17.930;2023-06-04T11:03:13;101681.20;;;21.69;26.47
77017;BME280;65949;53.132;17.930;2023-06-04T11:05:44;101682.33;;;21.73;26.79
77017;BME280;65949;53.132;17.930;2023-06-04T11:08:12;101684.09;;;21.83;27.03
77017;BME280;65949;53.132;17.930;2023-06-04T11:10:42;101678.04;;;21.94;26.61
77017;BME280;65949;53.132;17.930;2023-06-04T11:13:09;101679.09;;;22.03;26.96
77017;BME280;65949;53.132;17.930;2023-06-04T11:15:42;101678.87;;;22.14;26.18
77017;BME280;65949;53.132;17.930;2023-06-04T11:18:17;101681.93;;;22.26;26.38
77017;BME280;65949;53.132;17.930;2023-06-04T11:20:48;101682.40;;;22.43;26.60
77017;BME280;65949;53.132;17.930;2023-06-04T11:23:16;101681.56;;;22.52;25.49
77017;BME280;65949;53.132;17.930;2023-06-04T11:25:44;101671.04;;;22.43;25.39
77017;BME280;65949;53.132;17.930;2023-06-04T11:28:15;101668.33;;;22.24;25.14
77017;BME280;65949;53.132;17.930;2023-06-04T11:30:59;101670.48;;;22.11;26.04
77017;BME280;65949;53.132;17.930;2023-06-04T11:33:30;101671.88;;;22.30;26.01
77017;BME280;65949;53.132;17.930;2023-06-04T11:35:56;101670.90;;;22.30;25.50
77017;BME280;65949;53.132;17.930;2023-06-04T11:38:23;101671.35;;;22.33;25.80
77017;BME280;65949;53.132;17.930;2023-06-04T11:40:59;101663.55;;;22.37;25.52
77017;BME280;65949;53.132;17.930;2023-06-04T11:43:27;101663.09;;;22.36;25.51
77017;BME280;65949;53.132;17.930;2023-06-04T11:45:54;101665.17;;;22.42;25.63
77017;BME280;65949;53.132;17.930;2023-06-04T11:48:22;101666.48;;;22.56;25.89
77017;BME280;65949;53.132;17.930;2023-06-04T11:50:48;101667.28;;;22.70;25.44
77017;BME280;65949;53.132;17.930;2023-06-04T11:53:15;101663.52;;;22.79;25.47
77017;BME280;65949;53.132;17.930;2023-06-04T11:55:42;101657.30;;;22.92;25.37
77017;BME280;65949;53.132;17.930;2023-06-04T11:58:09;101658.69;;;22.99;25.75
77017;BME280;65949;53.132;17.930;2023-06-04T12:00:36;101657.27;;;23.08;25.68
77017;BME280;65949;53.132;17.930;2023-06-04T12:03:03;101654.30;;;23.22;25.52
77017;BME280;65949;53.132;17.930;2023-06-04T12:05:30;101654.09;;;23.33;25.24
77017;BME280;65949;53.132;17.930;2023-06-04T12:08:08;101645.39;;;23.32;24.36
77017;BME280;65949;53.132;17.930;2023-06-04T12:10:40;101648.31;;;23.15;24.46
77017;BME280;65949;53.132;17.930;2023-06-04T12:13:08;101645.36;;;23.09;24.44
77017;BME280;65949;53.132;17.930;2023-06-04T12:15:36;101646.59;;;23.02;24.34
77017;BME280;65949;53.132;17.930;2023-06-04T12:18:02;101650.06;;;23.03;24.47
77017;BME280;65949;53.132;17.930;2023-06-04T12:20:37;101649.16;;;23.12;24.77
77017;BME280;65949;53.132;17.930;2023-06-04T12:23:05;101649.88;;;23.18;25.03
77017;BME280;65949;53.132;17.930;2023-06-04T12:25:34;101650.27;;;23.24;25.10
77017;BME280;65949;53.132;17.930;2023-06-04T12:28:03;101640.16;;;23.36;25.10
77017;BME280;65949;53.132;17.930;2023-06-04T12:30:40;101636.59;;;23.51;24.09
77017;BME280;65949;53.132;17.930;2023-06-04T12:33:07;101633.66;;;23.45;24.00
77017;BME280;65949;53.132;17.930;2023-06-04T12:35:34;101639.70;;;23.44;24.62
77017;BME280;65949;53.132;17.930;2023-06-04T12:38:03;101640.84;;;23.49;24.47
77017;BME280;65949;53.132;17.930;2023-06-04T12:40:30;101641.95;;;23.50;24.13
77017;BME280;65949;53.132;17.930;2023-06-04T12:42:57;101638.19;;;23.51;24.47
77017;BME280;65949;53.132;17.930;2023-06-04T12:45:23;101643.38;;;23.60;24.58
77017;BME280;65949;53.132;17.930;2023-06-04T12:47:50;101642.69;;;23.67;24.13
77017;BME280;65949;53.132;17.930;2023-06-04T12:50:16;101645.23;;;23.59;24.22
77017;BME280;65949;53.132;17.930;2023-06-04T12:52:44;101643.13;;;23.62;24.48
77017;BME280;65949;53.132;17.930;2023-06-04T12:55:11;101643.21;;;23.72;24.87